createdAt,value
2023-05-22T00:00:15.342Z,53.41
2023-05-22T00:01:15.369Z,53.41
2023-05-22T00:02:15.442Z,53.00
2023-05-22T00:03:15.503Z,53.29
2023-05-22T00:04:15.485Z,53.29
2023-05-22T00:05:15.540Z,53.41
2023-05-22T00:06:15.569Z,53.31
2023-05-22T00:07:15.596Z,53.19
2023-05-22T00:08:15.623Z,53.19
2023-05-22T00:09:15.663Z,53.13
2023-05-22T00:10:15.701Z,53.19
2023-05-22T00:11:15.736Z,53.58
2023-05-22T00:12:15.770Z,53.87
2023-05-22T00:13:15.806Z,53.87
2023-05-22T00:14:15.845Z,53.70
2023-05-22T00:15:15.877Z,53.67
2023-05-22T00:16:15.922Z,53.77
2023-05-22T00:17:15.992Z,53.77
2023-05-22T00:18:15.997Z,53.67
2023-05-22T00:19:16.042Z,53.77
2023-05-22T00:20:16.060Z,53.77
2023-05-22T00:21:16.098Z,53.58
2023-05-22T00:22:16.138Z,53.67
2023-05-22T00:23:16.177Z,53.67
2023-05-22T00:24:16.211Z,53.77
2023-05-22T00:25:16.244Z,53.67
2023-05-22T00:26:16.298Z,54.06
2023-05-22T00:27:16.316Z,53.87
2023-05-22T00:28:16.358Z,53.67
2023-05-22T00:29:16.396Z,54.16
2023-05-22T00:30:16.426Z,53.87
2023-05-22T00:31:16.463Z,53.96
2023-05-22T00:32:16.525Z,53.87
2023-05-22T00:33:16.536Z,53.67
2023-05-22T00:34:16.643Z,53.39
2023-05-22T00:35:16.613Z,53.67
2023-05-22T00:36:16.645Z,53.77
2023-05-22T00:37:16.682Z,53.77
2023-05-22T00:38:16.735Z,54.06
2023-05-22T00:39:16.757Z,54.25
2023-05-22T00:40:16.791Z,53.67
2023-05-22T00:41:16.835Z,53.48
2023-05-22T00:42:16.882Z,54.25
2023-05-22T00:43:16.908Z,53.67
2023-05-22T00:44:16.952Z,53.77
2023-05-22T00:45:16.977Z,53.77
2023-05-22T00:46:17.018Z,53.67
2023-05-22T00:47:17.060Z,53.67
2023-05-22T00:48:17.087Z,54.16
2023-05-22T00:49:17.125Z,53.87
2023-05-22T00:50:17.166Z,53.94
2023-05-22T00:51:17.192Z,53.87
2023-05-22T00:52:17.250Z,54.13
2023-05-22T00:53:17.266Z,54.22
2023-05-22T00:54:17.305Z,53.84
2023-05-22T00:55:17.342Z,54.03
2023-05-22T00:56:17.375Z,54.03
2023-05-22T00:57:17.419Z,54.13
2023-05-22T00:58:17.472Z,53.84
2023-05-22T00:59:17.492Z,53.84
2023-05-22T01:00:17.528Z,54.22
2023-05-22T01:01:17.568Z,53.74
2023-05-22T01:02:17.590Z,53.94
2023-05-22T01:03:17.700Z,54.52
2023-05-22T01:04:17.681Z,54.32
2023-05-22T01:05:17.714Z,54.32
2023-05-22T01:06:17.737Z,54.03
2023-05-22T01:07:17.845Z,53.94
2023-05-22T01:08:17.814Z,54.42
2023-05-22T01:09:17.850Z,54.42
2023-05-22T01:10:17.893Z,53.94
2023-05-22T01:11:17.919Z,54.22
2023-05-22T01:12:17.972Z,54.32
2023-05-22T01:13:17.993Z,54.13
2023-05-22T01:14:18.033Z,54.32
2023-05-22T01:15:18.068Z,54.03
2023-05-22T01:16:18.147Z,54.71
2023-05-22T01:17:18.139Z,54.80
2023-05-22T01:18:18.179Z,54.71
2023-05-22T01:19:18.287Z,54.42
2023-05-22T01:20:18.251Z,54.42
2023-05-22T01:21:18.292Z,54.49
2023-05-22T01:22:18.322Z,54.61
2023-05-22T01:23:18.350Z,54.80
2023-05-22T01:24:18.408Z,54.61
2023-05-22T01:25:18.422Z,54.80
2023-05-22T01:26:18.468Z,54.80
2023-05-22T01:27:18.505Z,54.61
2023-05-22T01:28:18.542Z,55.19
2023-05-22T01:29:18.579Z,55.00
2023-05-22T01:30:18.606Z,55.07
2023-05-22T01:31:18.662Z,54.97
2023-05-22T01:32:18.683Z,54.87
2023-05-22T01:33:18.999Z,54.87
2023-05-22T01:34:18.754Z,54.97
2023-05-22T01:35:18.792Z,54.97
2023-05-22T01:36:18.822Z,54.97
2023-05-22T01:37:18.859Z,55.16
2023-05-22T01:38:18.899Z,55.26
2023-05-22T01:39:18.934Z,54.97
2023-05-22T01:40:18.972Z,54.97
2023-05-22T01:41:19.005Z,55.55
2023-05-22T01:42:19.063Z,55.74
2023-05-22T01:43:19.082Z,55.55
2023-05-22T01:44:19.119Z,55.26
2023-05-22T01:45:19.151Z,55.55
2023-05-22T01:46:19.277Z,55.26
2023-05-22T01:47:19.230Z,55.26
2023-05-22T01:48:19.262Z,55.93
2023-05-22T01:49:19.294Z,55.35
2023-05-22T01:50:19.336Z,55.93
2023-05-22T01:51:19.365Z,55.93
2023-05-22T01:52:19.408Z,55.83
2023-05-22T01:53:19.434Z,56.12
2023-05-22T01:54:19.475Z,56.00
2023-05-22T01:55:19.509Z,56.77
2023-05-22T01:56:19.569Z,56.67
2023-05-22T01:57:19.581Z,56.58
2023-05-22T01:58:19.625Z,56.58
2023-05-22T01:59:19.658Z,56.67
2023-05-22T02:00:19.689Z,56.58
2023-05-22T02:01:19.804Z,56.38
2023-05-22T02:02:19.805Z,56.58
2023-05-22T02:03:19.902Z,56.96
2023-05-22T02:04:19.845Z,56.96
2023-05-22T02:05:19.873Z,56.87
2023-05-22T02:06:19.905Z,56.77
2023-05-22T02:07:19.947Z,56.96
2023-05-22T02:08:19.977Z,56.87
2023-05-22T02:09:20.017Z,56.48
2023-05-22T02:10:20.062Z,56.67
2023-05-22T02:11:20.091Z,56.48
2023-05-22T02:12:20.123Z,56.58
2023-05-22T02:13:20.170Z,56.38
2023-05-22T02:14:20.198Z,56.58
2023-05-22T02:15:20.228Z,57.15
2023-05-22T02:16:20.279Z,56.77
2023-05-22T02:17:20.300Z,56.84
2023-05-22T02:18:20.348Z,57.42
2023-05-22T02:19:20.422Z,57.32
2023-05-22T02:20:20.410Z,56.84
2023-05-22T02:21:20.442Z,57.22
2023-05-22T02:22:20.488Z,57.06
2023-05-22T02:23:20.519Z,57.32
2023-05-22T02:24:20.553Z,57.13
2023-05-22T02:25:20.602Z,56.65
2023-05-22T02:26:20.623Z,56.55
2023-05-22T02:27:20.667Z,56.65
2023-05-22T02:28:20.691Z,56.74
2023-05-22T02:29:20.731Z,56.84
2023-05-22T02:30:20.783Z,56.65
2023-05-22T02:31:20.885Z,56.26
2023-05-22T02:32:20.839Z,57.03
2023-05-22T02:33:20.872Z,56.65
2023-05-22T02:34:20.913Z,56.65
2023-05-22T02:35:20.943Z,56.65
2023-05-22T02:36:21.003Z,56.84
2023-05-22T02:37:21.031Z,56.55
2023-05-22T02:38:21.059Z,56.74
2023-05-22T02:39:21.089Z,56.74
2023-05-22T02:40:21.135Z,56.65
2023-05-22T02:41:21.158Z,56.65
2023-05-22T02:42:21.195Z,56.55
2023-05-22T02:43:21.250Z,56.74
2023-05-22T02:44:21.266Z,56.65
2023-05-22T02:45:21.309Z,56.74
2023-05-22T02:46:21.420Z,56.93
2023-05-22T02:47:21.373Z,56.93
2023-05-22T02:48:21.455Z,56.84
2023-05-22T02:49:21.438Z,56.84
2023-05-22T02:50:21.483Z,56.55
2023-05-22T02:51:21.516Z,56.65
2023-05-22T02:52:21.553Z,56.74
2023-05-22T02:53:21.588Z,56.93
2023-05-22T02:54:21.619Z,56.74
2023-05-22T02:55:21.656Z,56.93
2023-05-22T02:56:21.689Z,56.93
2023-05-22T02:57:21.724Z,56.93
2023-05-22T02:58:21.763Z,56.74
2023-05-22T02:59:21.800Z,56.84
2023-05-22T03:00:21.837Z,56.55
2023-05-22T03:01:21.883Z,56.65
2023-05-22T03:02:21.911Z,56.65
2023-05-22T03:03:22.021Z,56.62
2023-05-22T03:04:21.981Z,57.03
2023-05-22T03:05:22.008Z,57.22
2023-05-22T03:06:22.047Z,57.22
2023-05-22T03:07:22.080Z,57.32
2023-05-22T03:08:22.127Z,57.10
2023-05-22T03:09:22.158Z,57.42
2023-05-22T03:10:22.193Z,57.32
2023-05-22T03:11:22.228Z,57.22
2023-05-22T03:12:22.256Z,57.10
2023-05-22T03:13:22.295Z,57.20
2023-05-22T03:14:22.329Z,57.29
2023-05-22T03:15:22.365Z,57.29
2023-05-22T03:16:22.424Z,57.10
2023-05-22T03:17:22.439Z,57.58
2023-05-22T03:18:23.192Z,57.48
2023-05-22T03:19:22.538Z,57.29
2023-05-22T03:20:22.545Z,57.20
2023-05-22T03:21:22.576Z,57.87
2023-05-22T03:22:22.617Z,57.87
2023-05-22T03:23:22.654Z,58.25
2023-05-22T03:24:22.692Z,57.87
2023-05-22T03:25:22.718Z,58.06
2023-05-22T03:26:22.757Z,58.15
2023-05-22T03:27:22.789Z,57.87
2023-05-22T03:28:22.832Z,57.77
2023-05-22T03:29:22.890Z,57.68
2023-05-22T03:30:22.900Z,57.97
2023-05-22T03:31:22.941Z,58.06
2023-05-22T03:32:23.012Z,58.06
2023-05-22T03:33:23.042Z,57.97
2023-05-22T03:34:23.044Z,57.68
2023-05-22T03:35:23.075Z,57.58
2023-05-22T03:36:23.135Z,58.15
2023-05-22T03:37:23.145Z,58.06
2023-05-22T03:38:23.225Z,57.97
2023-05-22T03:39:23.224Z,57.68
2023-05-22T03:40:23.261Z,57.77
2023-05-22T03:41:23.290Z,58.15
2023-05-22T03:42:23.334Z,58.06
2023-05-22T03:43:23.362Z,57.97
2023-05-22T03:44:23.398Z,58.06
2023-05-22T03:45:23.432Z,58.45
2023-05-22T03:46:23.553Z,58.25
2023-05-22T03:47:23.532Z,58.15
2023-05-22T03:48:23.536Z,58.25
2023-05-22T03:49:23.571Z,58.54
2023-05-22T03:50:23.617Z,58.73
2023-05-22T03:51:23.638Z,58.45
2023-05-22T03:52:23.690Z,58.54
2023-05-22T03:53:23.710Z,59.22
2023-05-22T03:54:23.768Z,59.22
2023-05-22T03:55:23.799Z,58.54
2023-05-22T03:56:23.824Z,58.73
2023-05-22T03:57:23.858Z,58.83
2023-05-22T03:58:23.933Z,58.54
2023-05-22T03:59:23.928Z,58.83
2023-05-22T04:00:26.353Z,58.45
2023-05-22T04:01:23.994Z,58.54
2023-05-22T04:02:24.081Z,59.02
2023-05-22T04:03:24.147Z,58.92
2023-05-22T04:04:24.097Z,58.64
2023-05-22T04:05:24.203Z,59.22
2023-05-22T04:06:24.172Z,58.92
2023-05-22T04:07:24.205Z,58.92
2023-05-22T04:08:24.243Z,59.31
2023-05-22T04:09:24.276Z,59.41
2023-05-22T04:10:24.324Z,59.22
2023-05-22T04:11:24.345Z,58.83
2023-05-22T04:12:24.384Z,58.92
2023-05-22T04:13:24.417Z,59.50
2023-05-22T04:14:24.462Z,59.31
2023-05-22T04:15:24.499Z,59.02
2023-05-22T04:16:24.645Z,59.12
2023-05-22T04:17:24.602Z,59.02
2023-05-22T04:18:24.594Z,59.12
2023-05-22T04:19:24.715Z,59.22
2023-05-22T04:20:24.665Z,59.12
2023-05-22T04:21:24.702Z,60.08
2023-05-22T04:22:24.740Z,59.89
2023-05-22T04:23:24.772Z,59.31
2023-05-22T04:24:24.806Z,59.02
2023-05-22T04:25:24.869Z,59.12
2023-05-22T04:26:24.877Z,59.12
2023-05-22T04:27:24.911Z,58.92
2023-05-22T04:28:24.950Z,59.12
2023-05-22T04:29:24.990Z,59.63
2023-05-22T04:30:25.024Z,58.95
2023-05-22T04:31:25.135Z,58.86
2023-05-22T04:32:25.136Z,58.92
2023-05-22T04:33:25.132Z,59.05
2023-05-22T04:34:25.160Z,59.15
2023-05-22T04:35:25.199Z,59.53
2023-05-22T04:36:25.229Z,59.12
2023-05-22T04:37:25.267Z,59.05
2023-05-22T04:38:25.310Z,58.86
2023-05-22T04:39:25.342Z,58.86
2023-05-22T04:40:25.375Z,58.95
2023-05-22T04:41:25.417Z,59.05
2023-05-22T04:42:25.442Z,59.05
2023-05-22T04:43:25.479Z,59.15
2023-05-22T04:44:25.518Z,58.95
2023-05-22T04:45:25.555Z,59.15
2023-05-22T04:46:25.609Z,58.95
2023-05-22T04:47:25.631Z,58.95
2023-05-22T04:48:25.660Z,59.15
2023-05-22T04:49:25.693Z,59.53
2023-05-22T04:50:25.729Z,59.34
2023-05-22T04:51:25.764Z,59.05
2023-05-22T04:52:25.823Z,59.15
2023-05-22T04:53:25.834Z,59.53
2023-05-22T04:54:25.870Z,59.05
2023-05-22T04:55:25.904Z,59.34
2023-05-22T04:56:35.597Z,59.15
2023-05-22T04:57:26.013Z,59.15
2023-05-22T04:58:26.021Z,59.24
2023-05-22T04:59:33.270Z,59.44
2023-05-22T05:01:19.115Z,59.63
2023-05-22T05:02:19.087Z,59.63
2023-05-22T05:04:12.264Z,59.15
2023-05-22T05:05:12.262Z,59.15
2023-05-22T05:07:05.296Z,59.53
2023-05-22T05:08:05.321Z,59.44
2023-05-22T05:09:58.324Z,59.15
2023-05-22T05:10:58.352Z,59.44
2023-05-22T05:12:51.549Z,59.24
2023-05-22T05:13:51.552Z,59.24
2023-05-22T05:15:44.756Z,59.53
2023-05-22T05:16:44.836Z,58.95
2023-05-22T05:18:37.964Z,59.08
2023-05-22T05:19:38.062Z,58.95
2023-05-22T05:21:42.058Z,58.95
2023-05-22T05:22:42.100Z,59.05
2023-05-22T05:24:35.251Z,59.34
2023-05-22T05:25:35.288Z,59.05
2023-05-22T05:27:28.484Z,59.53
2023-05-22T05:28:28.383Z,58.95
2023-05-22T05:30:21.572Z,59.34
2023-05-22T05:31:21.573Z,59.24
2023-05-22T05:33:25.675Z,59.24
2023-05-22T05:34:25.706Z,59.05
2023-05-22T05:36:18.750Z,59.24
2023-05-22T05:37:18.744Z,59.15
2023-05-22T05:39:11.923Z,59.24
2023-05-22T05:40:12.004Z,59.34
2023-05-22T05:42:16.049Z,59.17
2023-05-22T05:43:16.082Z,59.08
2023-05-22T05:45:09.279Z,58.98
2023-05-22T05:46:09.354Z,59.17
2023-05-22T05:48:02.547Z,59.47
2023-05-22T05:49:02.495Z,58.98
2023-05-22T05:50:55.503Z,59.27
2023-05-22T05:51:55.580Z,58.60
2023-05-22T05:53:48.797Z,58.89
2023-05-22T05:54:48.789Z,59.08
2023-05-22T05:56:41.780Z,58.50
2023-05-22T05:57:41.828Z,59.30
2023-05-22T05:59:45.894Z,58.63
2023-05-22T06:00:45.928Z,59.30
2023-05-22T06:02:51.020Z,58.82
2023-05-22T06:03:50.068Z,58.63
2023-05-22T06:05:54.216Z,59.11
2023-05-22T06:06:54.097Z,58.15
2023-05-22T06:08:47.330Z,58.44
2023-05-22T06:09:47.302Z,58.56
2023-05-22T06:11:51.421Z,58.27
2023-05-22T06:12:51.414Z,58.65
2023-05-22T06:14:55.485Z,61.65
2023-05-22T06:15:55.529Z,60.39
2023-05-22T06:17:48.711Z,59.91
2023-05-22T06:18:48.765Z,59.81
2023-05-22T06:20:42.012Z,59.91
2023-05-22T06:21:41.936Z,59.62
2023-05-22T06:23:46.033Z,58.97
2023-05-22T06:24:46.062Z,59.07
2023-05-22T06:26:39.123Z,60.13
2023-05-22T06:27:39.126Z,59.27
2023-05-22T06:29:32.156Z,58.59
2023-05-22T06:30:40.202Z,58.49
2023-05-22T06:32:36.490Z,58.59
2023-05-22T06:33:36.398Z,58.78
2023-05-22T06:35:29.314Z,58.88
2023-05-22T06:36:29.346Z,58.49
2023-05-22T06:38:22.403Z,59.30
2023-05-22T06:39:22.433Z,59.39
2023-05-22T06:41:26.504Z,59.00
2023-05-22T06:42:26.535Z,58.72
2023-05-22T06:44:19.522Z,58.42
2023-05-22T06:45:19.559Z,58.23
2023-05-22T06:47:12.601Z,58.33
2023-05-22T06:48:12.606Z,58.62
2023-05-22T06:50:05.784Z,58.04
2023-05-22T06:51:05.815Z,58.23
2023-05-22T06:52:59.020Z,58.04
2023-05-22T06:53:59.028Z,57.97
2023-05-22T06:55:52.193Z,58.17
2023-05-22T06:56:52.233Z,58.36
2023-05-22T06:58:45.440Z,57.87
2023-05-22T06:59:45.441Z,57.49
2023-05-22T07:01:38.674Z,57.68
2023-05-22T07:02:38.676Z,57.97
2023-05-22T07:04:42.742Z,57.32
2023-05-22T07:05:42.779Z,56.65
2023-05-22T07:07:35.779Z,56.94
2023-05-22T07:08:35.818Z,57.14
2023-05-22T07:10:28.987Z,56.84
2023-05-22T07:11:29.022Z,57.04
2023-05-22T07:13:22.064Z,57.42
2023-05-22T07:14:22.108Z,57.04
2023-05-22T07:16:15.204Z,56.65
2023-05-22T07:17:15.157Z,56.65
2023-05-22T07:19:19.300Z,57.14
2023-05-22T07:20:19.291Z,56.94
2023-05-22T07:22:12.515Z,56.87
2023-05-22T07:23:12.503Z,56.48
2023-05-22T07:25:16.586Z,56.58
2023-05-22T07:26:16.616Z,56.48
2023-05-22T07:28:09.810Z,56.77
2023-05-22T07:29:09.835Z,56.29
2023-05-22T07:31:13.986Z,56.29
2023-05-22T07:32:13.952Z,56.29
2023-05-22T07:34:06.992Z,56.22
2023-05-22T07:35:07.013Z,56.13
2023-05-22T07:37:11.128Z,55.83
2023-05-22T07:38:11.149Z,55.74
2023-05-22T07:40:04.312Z,56.41
2023-05-22T07:41:04.364Z,56.22
2023-05-22T07:42:57.603Z,55.38
2023-05-22T07:43:57.613Z,55.47
2023-05-22T07:45:50.834Z,55.47
2023-05-22T07:46:50.825Z,55.67
2023-05-22T07:48:43.997Z,55.11
2023-05-22T07:49:44.322Z,55.09
2023-05-22T07:51:48.110Z,55.02
2023-05-22T07:52:48.134Z,54.93
2023-05-22T07:54:42.365Z,55.11
2023-05-22T07:55:41.367Z,54.05
2023-05-22T07:57:34.208Z,54.15
2023-05-22T07:58:34.201Z,54.15
2023-05-22T08:00:27.197Z,53.99
2023-05-22T08:01:27.230Z,54.37
2023-05-22T08:03:23.147Z,55.15
2023-05-22T08:04:20.580Z,54.95
2023-05-22T08:06:13.479Z,54.27
2023-05-22T08:07:13.507Z,53.91
2023-05-22T08:09:06.696Z,53.63
2023-05-22T08:10:06.734Z,54.01
2023-05-22T08:12:10.848Z,53.33
2023-05-22T08:13:10.852Z,53.53
2023-05-22T08:15:04.060Z,52.97
2023-05-22T08:16:04.062Z,53.65
2023-05-22T08:17:57.292Z,52.39
2023-05-22T08:18:57.369Z,52.49
2023-05-22T08:20:50.599Z,52.68
2023-05-22T08:21:50.511Z,51.62
2023-05-22T08:23:43.683Z,52.39
2023-05-22T08:24:43.817Z,52.42
2023-05-22T08:26:36.708Z,51.54
2023-05-22T08:27:36.745Z,51.64
2023-05-22T08:29:40.848Z,51.45
2023-05-22T08:30:41.092Z,51.35
2023-05-22T08:32:34.067Z,51.45
2023-05-22T08:33:34.097Z,51.16
2023-05-22T08:35:27.273Z,51.35
2023-05-22T08:36:27.302Z,51.25
2023-05-22T08:38:20.515Z,50.67
2023-05-22T08:39:20.521Z,50.77
2023-05-22T08:41:13.695Z,50.79
2023-05-22T08:42:13.744Z,50.60
2023-05-22T08:44:17.814Z,50.41
2023-05-22T08:45:17.852Z,50.31
2023-05-22T08:47:11.214Z,50.50
2023-05-22T08:48:11.132Z,49.82
2023-05-22T08:50:04.438Z,49.73
2023-05-22T08:51:04.398Z,49.95
2023-05-22T08:53:08.466Z,49.17
2023-05-22T08:54:08.527Z,49.27
2023-05-22T08:56:01.711Z,49.10
2023-05-22T08:57:01.714Z,49.19
2023-05-22T08:58:54.894Z,48.42
2023-05-22T08:59:54.955Z,47.35
2023-05-22T09:01:59.015Z,47.93
2023-05-22T09:02:59.179Z,47.55
2023-05-22T09:05:03.119Z,47.55
2023-05-22T09:06:03.151Z,47.45
2023-05-22T09:07:58.323Z,47.06
2023-05-22T09:08:56.386Z,47.25
2023-05-22T09:10:49.568Z,46.86
2023-05-22T09:11:49.604Z,47.55
2023-05-22T09:13:42.810Z,47.28
2023-05-22T09:14:42.823Z,47.08
2023-05-22T09:16:35.900Z,45.43
2023-05-22T09:17:35.880Z,45.53
2023-05-22T09:19:29.131Z,46.69
2023-05-22T09:20:29.051Z,46.04
2023-05-22T09:22:33.118Z,45.26
2023-05-22T09:23:33.152Z,44.78
2023-05-22T09:25:37.248Z,45.55
2023-05-22T09:26:37.250Z,45.36
2023-05-22T09:28:41.331Z,44.78
2023-05-22T09:29:41.367Z,45.36
2023-05-22T09:31:45.519Z,44.87
2023-05-22T09:32:45.517Z,45.84
2023-05-22T09:34:38.672Z,45.45
2023-05-22T09:35:38.702Z,45.36
2023-05-22T09:37:31.883Z,44.58
2023-05-22T09:38:31.923Z,44.58
2023-05-22T09:40:25.120Z,45.24
2023-05-22T09:41:25.152Z,45.17
2023-05-22T09:43:18.399Z,45.17
2023-05-22T09:44:18.373Z,45.92
2023-05-22T09:46:11.384Z,45.55
2023-05-22T09:47:11.431Z,45.94
2023-05-22T09:49:17.066Z,45.65
2023-05-22T09:50:15.512Z,45.65
2023-05-22T09:52:19.627Z,44.97
2023-05-22T09:53:19.628Z,45.45
2023-05-22T09:55:23.708Z,44.89
2023-05-22T09:56:31.174Z,45.38
2023-05-22T09:58:27.946Z,44.43
2023-05-22T09:59:27.862Z,44.14
2023-05-22T10:01:21.008Z,44.24
2023-05-22T10:02:20.896Z,43.95
2023-05-22T10:04:14.339Z,43.75
2023-05-22T10:05:14.187Z,43.85
2023-05-22T10:06:14.216Z,43.75
2023-05-22T10:07:14.263Z,43.46
2023-05-22T10:08:14.317Z,43.46
2023-05-22T10:09:14.544Z,43.65
2023-05-22T10:10:14.378Z,43.26
2023-05-22T10:11:14.414Z,43.26
2023-05-22T10:12:14.454Z,43.26
2023-05-22T10:13:14.495Z,43.26
2023-05-22T10:14:14.655Z,43.55
2023-05-22T10:15:14.572Z,43.67
2023-05-22T10:16:14.659Z,43.67
2023-05-22T10:17:14.651Z,43.67
2023-05-22T10:18:14.692Z,43.29
2023-05-22T10:19:14.756Z,42.70
2023-05-22T10:20:14.773Z,42.50
2023-05-22T10:21:14.809Z,42.50
2023-05-22T10:22:14.873Z,42.24
2023-05-22T10:23:14.907Z,41.93
2023-05-22T10:24:14.930Z,41.83
2023-05-22T10:25:14.971Z,42.02
2023-05-22T10:26:15.010Z,42.41
2023-05-22T10:27:15.052Z,42.41
2023-05-22T10:28:15.102Z,42.99
2023-05-22T10:29:15.133Z,42.82
2023-05-22T10:30:15.284Z,42.63
2023-05-22T10:31:15.216Z,42.43
2023-05-22T10:32:15.253Z,42.14
2023-05-22T10:33:15.325Z,41.85
2023-05-22T10:34:15.332Z,41.85
2023-05-22T10:35:15.371Z,41.85
2023-05-22T10:36:15.410Z,40.68
2023-05-22T10:37:17.590Z,40.19
2023-05-22T10:38:15.490Z,40.66
2023-05-22T10:39:15.546Z,40.75
2023-05-22T10:40:15.576Z,40.85
2023-05-22T10:41:15.611Z,41.53
2023-05-22T10:42:15.706Z,41.24
2023-05-22T10:43:15.691Z,40.66
2023-05-22T10:44:15.730Z,41.34
2023-05-22T10:45:15.771Z,41.46
2023-05-22T10:46:15.892Z,41.55
2023-05-22T10:47:15.864Z,41.36
2023-05-22T10:48:15.892Z,41.65
2023-05-22T10:49:15.939Z,41.19
2023-05-22T10:50:15.977Z,40.80
2023-05-22T10:51:16.017Z,40.80
2023-05-22T10:52:16.053Z,40.99
2023-05-22T10:53:16.093Z,40.72
2023-05-22T10:54:16.139Z,40.91
2023-05-22T10:55:16.176Z,40.52
2023-05-22T10:56:16.214Z,39.76
2023-05-22T10:57:16.268Z,39.47
2023-05-22T10:58:16.313Z,39.28
2023-05-22T10:59:16.348Z,39.18
2023-05-22T11:00:16.401Z,39.08
2023-05-22T11:01:16.507Z,38.98
2023-05-22T11:02:16.755Z,39.28
2023-05-22T11:03:18.164Z,38.40
2023-05-22T11:04:16.585Z,38.49
2023-05-22T11:05:16.607Z,38.59
2023-05-22T11:06:16.620Z,38.30
2023-05-22T11:07:16.674Z,38.30
2023-05-22T11:08:18.261Z,38.10
2023-05-22T11:09:16.741Z,38.40
2023-05-22T11:10:16.787Z,38.40
2023-05-22T11:11:16.945Z,38.30
2023-05-22T11:12:16.907Z,38.79
2023-05-22T11:13:16.908Z,37.91
2023-05-22T11:14:16.946Z,37.52
2023-05-22T11:15:17.125Z,37.62
2023-05-22T11:16:17.043Z,37.43
2023-05-22T11:17:17.155Z,37.81
2023-05-22T11:18:17.258Z,37.62
2023-05-22T11:20:17.236Z,38.01
2023-05-22T11:21:17.232Z,38.02
2023-05-22T11:22:17.269Z,38.12
2023-05-22T11:23:17.312Z,37.83
2023-05-22T11:24:17.355Z,37.83
2023-05-22T11:25:17.401Z,38.02
2023-05-22T11:26:17.439Z,37.54
2023-05-22T11:27:17.480Z,37.25
2023-05-22T11:28:17.516Z,37.35
2023-05-22T11:29:17.565Z,37.35
2023-05-22T11:30:17.736Z,37.15
2023-05-22T11:31:17.661Z,37.05
2023-05-22T11:32:17.686Z,36.68
2023-05-22T11:33:17.791Z,36.66
2023-05-22T11:34:17.919Z,36.49
2023-05-22T11:35:17.816Z,36.39
2023-05-22T11:36:17.858Z,36.00
2023-05-22T11:37:17.893Z,36.10
2023-05-22T11:38:17.931Z,35.80
2023-05-22T11:39:17.978Z,35.12
2023-05-22T11:40:18.019Z,34.84
2023-05-22T11:41:18.054Z,35.43
2023-05-22T11:42:18.097Z,34.55
2023-05-22T11:43:18.131Z,34.16
2023-05-22T11:44:18.177Z,34.16
2023-05-22T11:45:18.215Z,34.26
2023-05-22T11:46:18.294Z,34.36
2023-05-22T11:47:18.298Z,33.77
2023-05-22T11:48:18.411Z,33.38
2023-05-22T11:49:18.400Z,33.38
2023-05-22T11:50:29.205Z,33.97
2023-05-22T11:51:18.487Z,33.67
2023-05-22T11:52:18.503Z,33.09
2023-05-22T11:53:18.564Z,33.28
2023-05-22T11:54:18.583Z,32.99
2023-05-22T11:55:18.632Z,33.11
2023-05-22T11:56:18.671Z,32.81
2023-05-22T11:57:18.710Z,33.11
2023-05-22T11:58:18.750Z,33.30
2023-05-22T11:59:18.800Z,32.71
2023-05-22T12:00:18.846Z,32.71
2023-05-22T12:01:18.879Z,32.62
2023-05-22T12:02:18.924Z,32.32
2023-05-22T12:03:19.021Z,32.32
2023-05-22T12:04:19.057Z,32.71
2023-05-22T12:05:19.033Z,32.42
2023-05-22T12:06:19.202Z,32.81
2023-05-22T12:07:19.117Z,32.42
2023-05-22T12:08:19.160Z,32.13
2023-05-22T12:09:19.196Z,32.03
2023-05-22T12:10:19.239Z,32.34
2023-05-22T12:11:19.280Z,31.46
2023-05-22T12:12:22.256Z,31.75
2023-05-22T12:13:19.362Z,31.75
2023-05-22T12:14:19.402Z,31.07
2023-05-22T12:15:19.453Z,31.38
2023-05-22T12:16:19.543Z,30.58
2023-05-22T12:17:19.530Z,30.69
2023-05-22T12:18:19.569Z,30.38
2023-05-22T12:19:19.639Z,30.19
2023-05-22T12:20:19.657Z,30.29
2023-05-22T12:21:19.705Z,30.48
2023-05-22T12:22:22.520Z,30.48
2023-05-22T12:23:19.779Z,30.48
2023-05-22T12:24:19.819Z,30.58
2023-05-22T12:25:19.863Z,30.49
2023-05-22T12:26:19.900Z,29.90
2023-05-22T12:27:19.959Z,30.38
2023-05-22T12:28:19.986Z,29.99
2023-05-22T12:29:20.028Z,30.09
2023-05-22T12:30:20.067Z,30.30
2023-05-22T12:31:20.110Z,30.20
2023-05-22T12:32:20.280Z,30.20
2023-05-22T12:33:20.243Z,30.20
2023-05-22T12:34:20.258Z,30.10
2023-05-22T12:35:20.285Z,30.20
2023-05-22T12:36:20.355Z,30.12
2023-05-22T12:37:20.381Z,29.53
2023-05-22T12:38:20.506Z,28.44
2023-05-22T12:39:20.450Z,29.04
2023-05-22T12:40:20.514Z,28.85
2023-05-22T12:41:20.543Z,29.14
2023-05-22T12:42:20.580Z,29.24
2023-05-22T12:43:20.623Z,29.16
2023-05-22T12:44:20.656Z,29.55
2023-05-22T12:45:20.699Z,29.16
2023-05-22T12:46:20.760Z,28.36
2023-05-22T12:47:20.794Z,28.47
2023-05-22T12:48:20.826Z,28.38
2023-05-22T12:49:20.882Z,28.57
2023-05-22T12:50:20.936Z,28.18
2023-05-22T12:51:20.965Z,27.78
2023-05-22T12:52:20.998Z,28.28
2023-05-22T12:53:21.122Z,27.98
2023-05-22T12:54:21.190Z,28.38
2023-05-22T12:55:21.123Z,27.29
2023-05-22T12:56:21.166Z,26.79
2023-05-22T12:57:21.208Z,26.01
2023-05-22T12:58:21.260Z,27.28
2023-05-22T12:59:21.289Z,27.28
2023-05-22T13:00:21.334Z,27.38
2023-05-22T13:01:21.427Z,27.38
2023-05-22T13:02:21.474Z,27.28
2023-05-22T13:03:21.495Z,26.99
2023-05-22T13:04:21.501Z,27.09
2023-05-22T13:05:21.599Z,27.08
2023-05-22T13:06:21.582Z,26.99
2023-05-22T13:07:21.628Z,27.17
2023-05-22T13:08:21.667Z,26.88
2023-05-22T13:09:21.711Z,26.57
2023-05-22T13:10:21.760Z,27.05
2023-05-22T13:11:21.806Z,27.36
2023-05-22T13:12:21.899Z,28.53
2023-05-22T13:13:21.878Z,28.23
2023-05-22T13:14:21.920Z,28.25
2023-05-22T13:15:21.956Z,28.25
2023-05-22T13:16:22.026Z,27.37
2023-05-22T13:17:22.095Z,28.06
2023-05-22T13:18:22.087Z,28.05
2023-05-22T13:19:22.192Z,27.47
2023-05-22T13:20:22.173Z,26.49
2023-05-22T13:21:23.187Z,26.78
2023-05-22T13:22:22.258Z,26.78
2023-05-22T13:23:22.302Z,27.27
2023-05-22T13:24:22.337Z,27.27
2023-05-22T13:25:22.378Z,27.17
2023-05-22T13:26:22.543Z,27.17
2023-05-22T13:27:22.468Z,27.08
2023-05-22T13:28:22.503Z,26.10
2023-05-22T13:29:22.553Z,25.81
2023-05-22T13:30:22.606Z,26.78
2023-05-22T13:31:22.660Z,26.98
2023-05-22T13:32:22.713Z,27.17
2023-05-22T13:33:22.712Z,27.27
2023-05-22T13:34:22.810Z,26.20
2023-05-22T13:35:22.799Z,26.89
2023-05-22T13:36:22.843Z,26.10
2023-05-22T13:37:22.896Z,26.29
2023-05-22T13:38:22.934Z,26.10
2023-05-22T13:39:22.967Z,26.20
2023-05-22T13:40:23.015Z,26.11
2023-05-22T13:41:23.051Z,25.90
2023-05-22T13:42:23.203Z,25.52
2023-05-22T13:43:23.150Z,26.01
2023-05-22T13:44:23.234Z,25.92
2023-05-22T13:45:23.227Z,26.40
2023-05-22T13:46:23.377Z,26.50
2023-05-22T13:47:23.577Z,25.82
2023-05-22T13:48:23.356Z,25.43
2023-05-22T13:49:23.390Z,25.43
2023-05-22T13:50:23.436Z,25.52
2023-05-22T13:51:23.475Z,25.23
2023-05-22T13:52:23.520Z,24.14
2023-05-22T13:53:23.576Z,23.94
2023-05-22T13:54:23.600Z,24.82
2023-05-22T13:55:23.645Z,25.12
2023-05-22T13:56:23.688Z,24.92
2023-05-22T13:57:23.740Z,24.92
2023-05-22T13:58:23.872Z,25.02
2023-05-22T13:59:23.814Z,24.32
2023-05-22T14:00:23.859Z,25.01
2023-05-22T14:01:23.942Z,25.79
2023-05-22T14:02:24.000Z,25.79
2023-05-22T14:03:24.024Z,26.00
2023-05-22T14:04:24.027Z,26.00
2023-05-22T14:05:24.061Z,25.42
2023-05-22T14:06:24.108Z,24.92
2023-05-22T14:07:24.149Z,24.33
2023-05-22T14:08:24.192Z,24.53
2023-05-22T14:09:24.233Z,24.13
2023-05-22T14:10:24.284Z,24.03
2023-05-22T14:11:24.332Z,24.51
2023-05-22T14:12:24.365Z,24.32
2023-05-22T14:13:24.401Z,25.08
2023-05-22T14:14:24.572Z,25.88
2023-05-22T14:15:24.492Z,25.68
2023-05-22T14:16:24.541Z,25.39
2023-05-22T14:17:24.571Z,25.49
2023-05-22T14:18:24.671Z,25.50
2023-05-22T14:19:24.709Z,25.39
2023-05-22T14:20:24.697Z,25.50
2023-05-22T14:21:24.737Z,25.01
2023-05-22T14:22:24.775Z,25.21
2023-05-22T14:23:24.821Z,25.11
2023-05-22T14:24:24.866Z,24.91
2023-05-22T14:25:24.912Z,24.71
2023-05-22T14:26:24.955Z,23.93
2023-05-22T14:27:24.986Z,24.52
2023-05-22T14:28:25.052Z,24.22
2023-05-22T14:29:25.065Z,24.81
2023-05-22T14:30:25.211Z,24.91
2023-05-22T14:31:25.168Z,24.91